sensor_id;sensor_type;location;lat;lon;timestamp;temperature;humidity
66576;SHT31;53428;47.686;16.584;2023-07-16T00:03:27;23.63;85.98
66576;SHT31;53428;47.686;16.584;2023-07-16T00:08:26;23.53;86.07
66576;SHT31;53428;47.686;16.584;2023-07-16T00:13:26;23.43;86.51
66576;SHT31;53428;47.686;16.584;2023-07-16T00:18:25;23.45;86.40
66576;SHT31;53428;47.686;16.584;2023-07-16T00:23:25;23.38;86.47
66576;SHT31;53428;47.686;16.584;2023-07-16T00:28:24;23.36;86.36
66576;SHT31;53428;47.686;16.584;2023-07-16T00:33:24;23.32;86.71
66576;SHT31;53428;47.686;16.584;2023-07-16T00:38:24;23.22;86.88
66576;SHT31;53428;47.686;16.584;2023-07-16T00:43:23;23.15;87.22
66576;SHT31;53428;47.686;16.584;2023-07-16T00:48:23;23.12;87.40
66576;SHT31;53428;47.686;16.584;2023-07-16T00:53:23;22.91;87.87
66576;SHT31;53428;47.686;16.584;2023-07-16T00:58:22;22.88;88.15
66576;SHT31;53428;47.686;16.584;2023-07-16T01:03:22;22.85;88.42
66576;SHT31;53428;47.686;16.584;2023-07-16T01:08:38;22.75;88.45
66576;SHT31;53428;47.686;16.584;2023-07-16T01:13:40;22.58;89.31
66576;SHT31;53428;47.686;16.584;2023-07-16T01:18:40;22.37;90.10
66576;SHT31;53428;47.686;16.584;2023-07-16T01:33:51;22.21;90.73
66576;SHT31;53428;47.686;16.584;2023-07-16T01:38:51;22.17;90.99
66576;SHT31;53428;47.686;16.584;2023-07-16T01:43:50;22.17;90.90
66576;SHT31;53428;47.686;16.584;2023-07-16T01:48:50;22.13;91.30
66576;SHT31;53428;47.686;16.584;2023-07-16T01:53:49;22.14;91.02
66576;SHT31;53428;47.686;16.584;2023-07-16T01:58:48;22.36;90.05
66576;SHT31;53428;47.686;16.584;2023-07-16T02:03:48;22.43;89.77
66576;SHT31;53428;47.686;16.584;2023-07-16T02:08:47;22.40;89.61
66576;SHT31;53428;47.686;16.584;2023-07-16T02:13:46;22.27;90.08
66576;SHT31;53428;47.686;16.584;2023-07-16T02:18:46;22.03;90.84
66576;SHT31;53428;47.686;16.584;2023-07-16T02:23:45;22.03;91.12
66576;SHT31;53428;47.686;16.584;2023-07-16T02:28:45;21.89;91.53
66576;SHT31;53428;47.686;16.584;2023-07-16T02:33:44;21.85;91.80
66576;SHT31;53428;47.686;16.584;2023-07-16T02:38:43;21.74;92.09
66576;SHT31;53428;47.686;16.584;2023-07-16T02:43:45;21.64;92.57
66576;SHT31;53428;47.686;16.584;2023-07-16T02:48:44;21.54;92.81
66576;SHT31;53428;47.686;16.584;2023-07-16T02:53:43;21.38;93.26
66576;SHT31;53428;47.686;16.584;2023-07-16T02:58:43;21.41;93.48
66576;SHT31;53428;47.686;16.584;2023-07-16T03:03:42;21.51;92.95
66576;SHT31;53428;47.686;16.584;2023-07-16T03:08:41;21.52;93.10
66576;SHT31;53428;47.686;16.584;2023-07-16T03:13:41;21.61;92.91
66576;SHT31;53428;47.686;16.584;2023-07-16T03:18:40;21.72;92.31
66576;SHT31;53428;47.686;16.584;2023-07-16T03:23:40;21.77;92.19
66576;SHT31;53428;47.686;16.584;2023-07-16T03:28:39;21.75;92.19
66576;SHT31;53428;47.686;16.584;2023-07-16T03:33:39;21.77;92.14
66576;SHT31;53428;47.686;16.584;2023-07-16T03:38:38;21.79;91.90
66576;SHT31;53428;47.686;16.584;2023-07-16T03:43:38;21.75;92.10
66576;SHT31;53428;47.686;16.584;2023-07-16T03:48:37;21.85;91.73
66576;SHT31;53428;47.686;16.584;2023-07-16T03:53:36;21.77;91.99
66576;SHT31;53428;47.686;16.584;2023-07-16T03:58:36;21.66;92.62
66576;SHT31;53428;47.686;16.584;2023-07-16T04:03:35;21.77;92.37
66576;SHT31;53428;47.686;16.584;2023-07-16T04:08:35;21.71;92.81
66576;SHT31;53428;47.686;16.584;2023-07-16T04:13:35;21.72;92.61
66576;SHT31;53428;47.686;16.584;2023-07-16T04:18:34;21.81;92.26
66576;SHT31;53428;47.686;16.584;2023-07-16T04:23:33;21.98;91.73
66576;SHT31;53428;47.686;16.584;2023-07-16T04:28:32;22.00;91.61
66576;SHT31;53428;47.686;16.584;2023-07-16T04:33:32;22.13;91.43
66576;SHT31;53428;47.686;16.584;2023-07-16T04:38:31;22.17;91.35
66576;SHT31;53428;47.686;16.584;2023-07-16T04:43:30;22.27;91.20
66576;SHT31;53428;47.686;16.584;2023-07-16T04:48:30;22.29;91.06
66576;SHT31;53428;47.686;16.584;2023-07-16T04:53:29;22.36;90.94
66576;SHT31;53428;47.686;16.584;2023-07-16T04:58:29;22.47;90.45
66576;SHT31;53428;47.686;16.584;2023-07-16T05:03:28;22.67;89.52
66576;SHT31;53428;47.686;16.584;2023-07-16T05:08:27;22.81;89.29
66576;SHT31;53428;47.686;16.584;2023-07-16T05:13:27;22.96;88.95
66576;SHT31;53428;47.686;16.584;2023-07-16T05:18:26;23.19;88.32
66576;SHT31;53428;47.686;16.584;2023-07-16T05:23:25;23.46;87.30
66576;SHT31;53428;47.686;16.584;2023-07-16T05:28:26;23.74;86.69
66576;SHT31;53428;47.686;16.584;2023-07-16T05:33:25;23.74;87.50
66576;SHT31;53428;47.686;16.584;2023-07-16T05:38:24;23.32;89.13
66576;SHT31;53428;47.686;16.584;2023-07-16T05:43:24;23.41;89.25
66576;SHT31;53428;47.686;16.584;2023-07-16T05:48:24;23.56;88.80
66576;SHT31;53428;47.686;16.584;2023-07-16T05:53:23;23.70;88.65
66576;SHT31;53428;47.686;16.584;2023-07-16T05:58:22;23.88;88.46
66576;SHT31;53428;47.686;16.584;2023-07-16T06:03:22;24.26;87.38
66576;SHT31;53428;47.686;16.584;2023-07-16T06:08:21;24.47;85.32
66576;SHT31;53428;47.686;16.584;2023-07-16T06:13:20;24.88;83.69
66576;SHT31;53428;47.686;16.584;2023-07-16T06:18:20;25.14;82.38
66576;SHT31;53428;47.686;16.584;2023-07-16T06:23:19;25.48;80.90
66576;SHT31;53428;47.686;16.584;2023-07-16T06:28:18;25.92;78.84
66576;SHT31;53428;47.686;16.584;2023-07-16T06:33:18;26.27;77.33
66576;SHT31;53428;47.686;16.584;2023-07-16T06:38:17;26.52;75.74
66576;SHT31;53428;47.686;16.584;2023-07-16T06:43:17;26.81;75.33
66576;SHT31;53428;47.686;16.584;2023-07-16T06:48:17;27.20;69.99
66576;SHT31;53428;47.686;16.584;2023-07-16T06:53:17;27.63;67.81
66576;SHT31;53428;47.686;16.584;2023-07-16T06:58:16;27.53;66.96
66576;SHT31;53428;47.686;16.584;2023-07-16T07:03:16;27.57;66.91
66576;SHT31;53428;47.686;16.584;2023-07-16T07:08:15;27.71;66.83
66576;SHT31;53428;47.686;16.584;2023-07-16T07:13:14;27.81;66.53
66576;SHT31;53428;47.686;16.584;2023-07-16T07:18:14;28.01;66.14
66576;SHT31;53428;47.686;16.584;2023-07-16T07:23:15;28.08;65.64
66576;SHT31;53428;47.686;16.584;2023-07-16T07:28:15;27.95;64.53
66576;SHT31;53428;47.686;16.584;2023-07-16T07:33:14;28.22;64.06
66576;SHT31;53428;47.686;16.584;2023-07-16T07:38:14;28.18;63.63
66576;SHT31;53428;47.686;16.584;2023-07-16T07:43:13;28.25;63.60
66576;SHT31;53428;47.686;16.584;2023-07-16T07:48:12;28.23;62.61
66576;SHT31;53428;47.686;16.584;2023-07-16T07:53:12;28.23;63.05
66576;SHT31;53428;47.686;16.584;2023-07-16T07:58:13;28.49;62.73
66576;SHT31;53428;47.686;16.584;2023-07-16T08:03:13;28.43;62.90
66576;SHT31;53428;47.686;16.584;2023-07-16T08:08:12;28.45;62.98
66576;SHT31;53428;47.686;16.584;2023-07-16T08:13:11;28.84;63.13
66576;SHT31;53428;47.686;16.584;2023-07-16T08:18:10;28.83;62.43
66576;SHT31;53428;47.686;16.584;2023-07-16T08:23:10;28.97;61.92
66576;SHT31;53428;47.686;16.584;2023-07-16T08:28:09;29.21;61.69
66576;SHT31;53428;47.686;16.584;2023-07-16T08:33:10;29.08;61.35
66576;SHT31;53428;47.686;16.584;2023-07-16T08:38:11;29.28;61.17
66576;SHT31;53428;47.686;16.584;2023-07-16T08:43:10;29.26;61.45
66576;SHT31;53428;47.686;16.584;2023-07-16T08:48:12;29.56;61.13
66576;SHT31;53428;47.686;16.584;2023-07-16T08:53:11;29.39;61.48
66576;SHT31;53428;47.686;16.584;2023-07-16T08:58:14;29.39;60.99
66576;SHT31;53428;47.686;16.584;2023-07-16T09:03:16;29.77;60.38
66576;SHT31;53428;47.686;16.584;2023-07-16T09:08:15;29.79;60.79
66576;SHT31;53428;47.686;16.584;2023-07-16T09:13:18;29.86;61.08
66576;SHT31;53428;47.686;16.584;2023-07-16T09:18:21;30.10;60.27
66576;SHT31;53428;47.686;16.584;2023-07-16T09:23:26;30.16;60.13
66576;SHT31;53428;47.686;16.584;2023-07-16T09:28:30;30.28;60.03
66576;SHT31;53428;47.686;16.584;2023-07-16T09:33:31;30.01;60.43
66576;SHT31;53428;47.686;16.584;2023-07-16T09:38:31;30.49;59.71
66576;SHT31;53428;47.686;16.584;2023-07-16T09:43:32;30.38;59.42
66576;SHT31;53428;47.686;16.584;2023-07-16T09:48:35;30.28;59.41
66576;SHT31;53428;47.686;16.584;2023-07-16T09:53:36;30.51;58.84
66576;SHT31;53428;47.686;16.584;2023-07-16T09:58:35;30.80;58.93
66576;SHT31;53428;47.686;16.584;2023-07-16T10:03:35;30.82;58.25
66576;SHT31;53428;47.686;16.584;2023-07-16T10:08:34;30.88;58.21
66576;SHT31;53428;47.686;16.584;2023-07-16T10:13:34;30.88;58.12
66576;SHT31;53428;47.686;16.584;2023-07-16T10:18:33;31.07;58.05
66576;SHT31;53428;47.686;16.584;2023-07-16T10:23:41;31.54;57.46
66576;SHT31;53428;47.686;16.584;2023-07-16T10:28:40;31.36;57.46
66576;SHT31;53428;47.686;16.584;2023-07-16T10:33:40;31.55;56.98
66576;SHT31;53428;47.686;16.584;2023-07-16T10:38:41;32.09;55.75
66576;SHT31;53428;47.686;16.584;2023-07-16T10:43:43;32.66;55.12
66576;SHT31;53428;47.686;16.584;2023-07-16T10:48:46;32.47;55.24
66576;SHT31;53428;47.686;16.584;2023-07-16T10:53:46;32.41;55.04
66576;SHT31;53428;47.686;16.584;2023-07-16T10:58:45;32.40;55.13
66576;SHT31;53428;47.686;16.584;2023-07-16T11:03:45;32.26;55.26
66576;SHT31;53428;47.686;16.584;2023-07-16T11:08:44;33.14;53.57
66576;SHT31;53428;47.686;16.584;2023-07-16T11:13:43;34.23;52.16
66576;SHT31;53428;47.686;16.584;2023-07-16T11:18:42;33.80;52.48
66576;SHT31;53428;47.686;16.584;2023-07-16T11:23:43;35.12;50.30
66576;SHT31;53428;47.686;16.584;2023-07-16T11:28:42;34.48;51.30
66576;SHT31;53428;47.686;16.584;2023-07-16T11:33:45;34.68;50.92
66576;SHT31;53428;47.686;16.584;2023-07-16T11:38:44;33.94;51.90
66576;SHT31;53428;47.686;16.584;2023-07-16T11:43:44;34.44;51.40
66576;SHT31;53428;47.686;16.584;2023-07-16T11:48:43;35.77;49.60
66576;SHT31;53428;47.686;16.584;2023-07-16T11:53:42;35.12;50.45
66576;SHT31;53428;47.686;16.584;2023-07-16T11:58:42;35.17;50.16
66576;SHT31;53428;47.686;16.584;2023-07-16T12:03:41;35.92;48.83
66576;SHT31;53428;47.686;16.584;2023-07-16T12:08:40;36.97;46.80
66576;SHT31;53428;47.686;16.584;2023-07-16T12:13:40;37.62;45.56
66576;SHT31;53428;47.686;16.584;2023-07-16T12:18:39;35.62;49.15
66576;SHT31;53428;47.686;16.584;2023-07-16T12:23:38;36.14;48.62
66576;SHT31;53428;47.686;16.584;2023-07-16T12:28:38;35.69;49.56
66576;SHT31;53428;47.686;16.584;2023-07-16T12:33:37;36.53;47.56
66576;SHT31;53428;47.686;16.584;2023-07-16T12:38:36;36.79;47.19
66576;SHT31;53428;47.686;16.584;2023-07-16T12:43:36;36.26;48.08
66576;SHT31;53428;47.686;16.584;2023-07-16T12:48:35;36.76;47.12
66576;SHT31;53428;47.686;16.584;2023-07-16T12:53:34;37.01;47.06
66576;SHT31;53428;47.686;16.584;2023-07-16T12:58:34;38.64;45.15
66576;SHT31;53428;47.686;16.584;2023-07-16T13:03:33;37.49;46.28
66576;SHT31;53428;47.686;16.584;2023-07-16T13:08:33;37.21;46.31
66576;SHT31;53428;47.686;16.584;2023-07-16T13:13:32;38.45;44.56
66576;SHT31;53428;47.686;16.584;2023-07-16T13:18:32;38.40;45.17
66576;SHT31;53428;47.686;16.584;2023-07-16T13:23:31;38.26;45.55
66576;SHT31;53428;47.686;16.584;2023-07-16T13:28:31;38.58;44.96
66576;SHT31;53428;47.686;16.584;2023-07-16T13:33:31;38.27;45.00
66576;SHT31;53428;47.686;16.584;2023-07-16T13:38:31;38.98;44.47
66576;SHT31;53428;47.686;16.584;2023-07-16T13:43:31;39.33;43.40
66576;SHT31;53428;47.686;16.584;2023-07-16T13:48:31;40.18;42.25
66576;SHT31;53428;47.686;16.584;2023-07-16T13:53:30;40.38;41.53
66576;SHT31;53428;47.686;16.584;2023-07-16T13:58:30;38.99;43.28
66576;SHT31;53428;47.686;16.584;2023-07-16T14:03:29;38.38;44.59
66576;SHT31;53428;47.686;16.584;2023-07-16T14:08:29;40.09;42.32
66576;SHT31;53428;47.686;16.584;2023-07-16T14:13:33;38.21;44.58
66576;SHT31;53428;47.686;16.584;2023-07-16T14:18:33;37.97;44.09
66576;SHT31;53428;47.686;16.584;2023-07-16T14:23:32;38.99;43.49
66576;SHT31;53428;47.686;16.584;2023-07-16T14:28:31;40.64;41.14
66576;SHT31;53428;47.686;16.584;2023-07-16T14:33:31;39.90;42.44
66576;SHT31;53428;47.686;16.584;2023-07-16T14:38:32;41.18;41.07
66576;SHT31;53428;47.686;16.584;2023-07-16T14:43:31;42.20;39.52
66576;SHT31;53428;47.686;16.584;2023-07-16T14:48:31;41.75;39.40
66576;SHT31;53428;47.686;16.584;2023-07-16T14:53:30;40.75;40.98
66576;SHT31;53428;47.686;16.584;2023-07-16T14:58:31;40.46;41.36
66576;SHT31;53428;47.686;16.584;2023-07-16T15:03:31;41.38;40.49
66576;SHT31;53428;47.686;16.584;2023-07-16T15:08:31;38.68;43.58
66576;SHT31;53428;47.686;16.584;2023-07-16T15:13:30;39.12;42.49
66576;SHT31;53428;47.686;16.584;2023-07-16T15:18:30;39.38;41.97
66576;SHT31;53428;47.686;16.584;2023-07-16T15:23:30;41.72;39.29
66576;SHT31;53428;47.686;16.584;2023-07-16T15:28:30;41.78;38.98
66576;SHT31;53428;47.686;16.584;2023-07-16T15:33:32;39.56;41.45
66576;SHT31;53428;47.686;16.584;2023-07-16T15:38:33;41.59;39.60
66576;SHT31;53428;47.686;16.584;2023-07-16T15:43:32;41.85;38.67
66576;SHT31;53428;47.686;16.584;2023-07-16T15:48:32;39.61;41.18
66576;SHT31;53428;47.686;16.584;2023-07-16T15:53:32;40.36;41.18
66576;SHT31;53428;47.686;16.584;2023-07-16T15:58:32;40.24;41.24
66576;SHT31;53428;47.686;16.584;2023-07-16T16:03:31;38.15;43.70
66576;SHT31;53428;47.686;16.584;2023-07-16T16:08:32;40.86;39.85
66576;SHT31;53428;47.686;16.584;2023-07-16T16:13:36;42.06;39.02
66576;SHT31;53428;47.686;16.584;2023-07-16T16:18:35;40.34;40.41
66576;SHT31;53428;47.686;16.584;2023-07-16T16:23:35;39.46;41.13
66576;SHT31;53428;47.686;16.584;2023-07-16T16:28:35;37.51;44.50
66576;SHT31;53428;47.686;16.584;2023-07-16T16:33:34;40.28;40.79
66576;SHT31;53428;47.686;16.584;2023-07-16T16:38:35;39.19;41.81
66576;SHT31;53428;47.686;16.584;2023-07-16T16:43:35;38.65;43.15
66576;SHT31;53428;47.686;16.584;2023-07-16T16:48:35;38.44;43.66
66576;SHT31;53428;47.686;16.584;2023-07-16T16:53:37;38.60;42.82
66576;SHT31;53428;47.686;16.584;2023-07-16T16:58:36;37.54;44.30
66576;SHT31;53428;47.686;16.584;2023-07-16T17:03:36;37.24;45.14
66576;SHT31;53428;47.686;16.584;2023-07-16T17:08:36;38.44;43.20
66576;SHT31;53428;47.686;16.584;2023-07-16T17:13:36;37.79;43.93
66576;SHT31;53428;47.686;16.584;2023-07-16T17:18:35;38.07;43.52
66576;SHT31;53428;47.686;16.584;2023-07-16T17:23:35;36.45;45.77
66576;SHT31;53428;47.686;16.584;2023-07-16T17:28:34;34.85;48.06
66576;SHT31;53428;47.686;16.584;2023-07-16T17:33:34;34.69;48.58
66576;SHT31;53428;47.686;16.584;2023-07-16T17:38:33;33.41;51.72
66576;SHT31;53428;47.686;16.584;2023-07-16T17:43:32;33.14;53.73
66576;SHT31;53428;47.686;16.584;2023-07-16T17:48:32;32.59;54.90
66576;SHT31;53428;47.686;16.584;2023-07-16T17:53:31;32.19;56.19
66576;SHT31;53428;47.686;16.584;2023-07-16T17:58:32;31.95;56.35
66576;SHT31;53428;47.686;16.584;2023-07-16T18:03:33;31.71;57.48
66576;SHT31;53428;47.686;16.584;2023-07-16T18:08:32;31.51;57.28
66576;SHT31;53428;47.686;16.584;2023-07-16T18:13:32;31.10;59.49
66576;SHT31;53428;47.686;16.584;2023-07-16T18:18:31;30.68;60.81
66576;SHT31;53428;47.686;16.584;2023-07-16T18:23:31;30.76;59.98
66576;SHT31;53428;47.686;16.584;2023-07-16T18:28:31;30.58;60.36
66576;SHT31;53428;47.686;16.584;2023-07-16T18:33:32;30.49;60.55
66576;SHT31;53428;47.686;16.584;2023-07-16T18:38:32;30.25;61.30
66576;SHT31;53428;47.686;16.584;2023-07-16T18:43:32;30.07;61.44
66576;SHT31;53428;47.686;16.584;2023-07-16T18:48:32;29.83;62.78
66576;SHT31;53428;47.686;16.584;2023-07-16T18:53:31;29.63;63.23
66576;SHT31;53428;47.686;16.584;2023-07-16T18:58:34;29.51;63.54
66576;SHT31;53428;47.686;16.584;2023-07-16T19:03:34;29.32;63.57
66576;SHT31;53428;47.686;16.584;2023-07-16T19:08:34;29.28;63.65
66576;SHT31;53428;47.686;16.584;2023-07-16T19:13:34;29.12;64.52
66576;SHT31;53428;47.686;16.584;2023-07-16T19:18:33;28.97;65.13
66576;SHT31;53428;47.686;16.584;2023-07-16T19:23:33;28.67;66.81
66576;SHT31;53428;47.686;16.584;2023-07-16T19:28:32;28.46;68.58
66576;SHT31;53428;47.686;16.584;2023-07-16T19:33:32;28.33;68.43
66576;SHT31;53428;47.686;16.584;2023-07-16T19:38:32;28.23;68.60
66576;SHT31;53428;47.686;16.584;2023-07-16T19:43:32;28.15;68.15
66576;SHT31;53428;47.686;16.584;2023-07-16T19:48:33;28.11;68.15
66576;SHT31;53428;47.686;16.584;2023-07-16T19:53:33;28.02;68.47
66576;SHT31;53428;47.686;16.584;2023-07-16T19:58:33;27.94;68.75
66576;SHT31;53428;47.686;16.584;2023-07-16T20:03:33;27.98;68.72
66576;SHT31;53428;47.686;16.584;2023-07-16T20:08:32;27.87;69.67
66576;SHT31;53428;47.686;16.584;2023-07-16T20:13:32;27.60;70.86
66576;SHT31;53428;47.686;16.584;2023-07-16T20:18:32;27.37;71.56
66576;SHT31;53428;47.686;16.584;2023-07-16T20:23:32;27.37;71.57
66576;SHT31;53428;47.686;16.584;2023-07-16T20:28:32;27.22;72.29
66576;SHT31;53428;47.686;16.584;2023-07-16T20:33:32;27.20;72.36
66576;SHT31;53428;47.686;16.584;2023-07-16T20:38:32;27.00;73.34
66576;SHT31;53428;47.686;16.584;2023-07-16T20:43:31;26.82;74.10
66576;SHT31;53428;47.686;16.584;2023-07-16T20:48:31;26.71;74.62
66576;SHT31;53428;47.686;16.584;2023-07-16T20:53:31;26.57;74.82
66576;SHT31;53428;47.686;16.584;2023-07-16T20:58:30;26.50;75.21
66576;SHT31;53428;47.686;16.584;2023-07-16T21:03:30;26.41;74.95
66576;SHT31;53428;47.686;16.584;2023-07-16T21:08:30;26.36;75.47
66576;SHT31;53428;47.686;16.584;2023-07-16T21:13:29;26.37;73.90
66576;SHT31;53428;47.686;16.584;2023-07-16T21:18:29;26.37;73.31
66576;SHT31;53428;47.686;16.584;2023-07-16T21:23:28;26.45;73.13
66576;SHT31;53428;47.686;16.584;2023-07-16T21:28:27;26.36;73.98
66576;SHT31;53428;47.686;16.584;2023-07-16T21:33:27;26.07;75.14
66576;SHT31;53428;47.686;16.584;2023-07-16T21:38:26;25.83;75.99
66576;SHT31;53428;47.686;16.584;2023-07-16T21:43:25;25.76;76.23
66576;SHT31;53428;47.686;16.584;2023-07-16T21:48:25;25.69;76.89
66576;SHT31;53428;47.686;16.584;2023-07-16T21:53:25;25.58;77.23
66576;SHT31;53428;47.686;16.584;2023-07-16T21:58:24;25.51;77.33
66576;SHT31;53428;47.686;16.584;2023-07-16T22:03:24;25.45;77.05
66576;SHT31;53428;47.686;16.584;2023-07-16T22:08:23;25.45;76.85
66576;SHT31;53428;47.686;16.584;2023-07-16T22:13:23;25.42;76.82
66576;SHT31;53428;47.686;16.584;2023-07-16T22:18:22;25.54;76.83
66576;SHT31;53428;47.686;16.584;2023-07-16T22:23:24;25.41;76.78
66576;SHT31;53428;47.686;16.584;2023-07-16T22:28:23;25.37;77.12
66576;SHT31;53428;47.686;16.584;2023-07-16T22:33:23;25.39;77.11
66576;SHT31;53428;47.686;16.584;2023-07-16T22:38:22;25.38;77.41
66576;SHT31;53428;47.686;16.584;2023-07-16T22:43:22;26.07;75.18
66576;SHT31;53428;47.686;16.584;2023-07-16T22:48:21;27.20;71.85
66576;SHT31;53428;47.686;16.584;2023-07-16T22:53:21;27.68;70.45
66576;SHT31;53428;47.686;16.584;2023-07-16T22:58:21;27.95;69.72
66576;SHT31;53428;47.686;16.584;2023-07-16T23:03:20;27.95;69.67
66576;SHT31;53428;47.686;16.584;2023-07-16T23:08:20;28.00;69.70
66576;SHT31;53428;47.686;16.584;2023-07-16T23:13:19;27.94;69.91
66576;SHT31;53428;47.686;16.584;2023-07-16T23:18:18;27.85;70.20
66576;SHT31;53428;47.686;16.584;2023-07-16T23:23:18;27.60;70.99
66576;SHT31;53428;47.686;16.584;2023-07-16T23:28:17;26.95;72.85
66576;SHT31;53428;47.686;16.584;2023-07-16T23:33:17;26.67;73.67
66576;SHT31;53428;47.686;16.584;2023-07-16T23:38:16;26.41;74.43
66576;SHT31;53428;47.686;16.584;2023-07-16T23:43:16;26.20;75.09
66576;SHT31;53428;47.686;16.584;2023-07-16T23:48:15;26.00;75.77
66576;SHT31;53428;47.686;16.584;2023-07-16T23:53:15;25.75;76.57
66576;SHT31;53428;47.686;16.584;2023-07-16T23:58:14;25.62;77.00
